マドリード/バラハス の空港の天気 - METARとTAF

マドリード・バラハス国際空港 ( LEMD / MAD ) - スペイン マドリード
飛行場実況気象(Metar)
観測時間07/28 14:30 CEST (07/28 12:30 UTC)
風向・風速北 3m/s 瞬間風速9m/s
視程10km以上
天気現象
なし
気温36℃
湿度16%
気圧1017hPa
METARLEMD 281230Z VRB05G17KT CAVOK 36/06 Q1017 NOSIG
過去の天気等 Google飛行場航空写真 Wunderground天気予報

過去48時間のMETAR

飛行場予報(TAF)
発表時間: 7/28 13:00 CEST (7/28 11:00 UTC)
予報対象時間: 28日14時 CEST ~ 29日20時 CEST
風向・風速不定 3m/s
視程10km以上
なし
28日14時 CEST ~ 28日15時 CEST に徐々に
風向・風速南西 5m/s 瞬間風速 10m/s
28日22時 CEST ~ 28日24時 CEST に徐々に
風向・風速不定 3m/s
29日12時 CEST ~ 29日14時 CEST に徐々に
風向・風速西南西 5m/s
29日13時 CEST ~ 29日20時 CEST に一時的に
風向・風速西南西 8m/s 瞬間風速 13m/s
TAF LEMD 281100Z 2812/2918 VRB05KT CAVOK TX38/2816Z TN19/2906Z
BECMG 2812/2813 22010G20KT
BECMG 2820/2822 VRB05KT
BECMG 2910/2912 24010KT
TEMPO 2911/2918 24015G25KT